Time;durP1;ratioP1;P1;durP2;ratioP2;P2;SDS_P1;SDS_P2;PMS_P1;PMS_P2;Temp;Humidity;BMP_temperature;BMP_pressure;BME280_temperature;BME280_humidity;BME280_pressure;Samples;Min_cycle;Max_cycle;Signal;HPM_P1;HPM_P2
2022/09/10 00:00:58;;;;;;;10.93;5.70;;;20.30;99.90;;;;;;5034127;28;20026;-68
2022/09/10 00:03:25;;;;;;;9.65;5.68;;;20.30;99.90;;;;;;5036176;28;20068;-68
2022/09/10 00:05:51;;;;;;;9.70;5.80;;;20.20;99.90;;;;;;5036513;28;20419;-68
2022/09/10 00:08:18;;;;;;;9.23;5.90;;;20.20;99.90;;;;;;5032868;28;20068;-68
2022/09/10 00:10:47;;;;;;;9.43;5.30;;;20.20;99.90;;;;;;5045755;28;20049;-67
2022/09/10 00:13:15;;;;;;;9.15;5.57;;;20.10;99.90;;;;;;5036494;28;20436;-68
2022/09/10 00:15:43;;;;;;;9.95;5.90;;;20.20;99.90;;;;;;5032395;28;20018;-68
2022/09/10 00:18:11;;;;;;;10.75;5.63;;;20.10;99.90;;;;;;5032852;28;20041;-69
2022/09/10 00:20:54;;;;;;;7.82;4.90;;;20.20;99.90;;;;;;5032675;28;20096;-66
2022/09/10 00:23:22;;;;;;;;;;;20.20;99.90;;;;;;5032668;28;20108;-68
2022/09/10 00:25:50;;;;;;;9.93;5.70;;;20.20;99.90;;;;;;5030891;28;20411;-67
2022/09/10 00:28:17;;;;;;;13.57;5.05;;;20.20;99.90;;;;;;5051899;28;20037;-68
2022/09/10 00:30:45;;;;;;;8.27;5.57;;;20.20;99.90;;;;;;5047453;28;20036;-68
2022/09/10 00:33:12;;;;;;;9.75;5.47;;;20.20;99.90;;;;;;5032040;28;20032;-68
2022/09/10 00:35:39;;;;;;;11.68;5.70;;;20.20;99.90;;;;;;5041818;28;20056;-68
2022/09/10 00:38:06;;;;;;;9.95;5.43;;;20.20;99.90;;;;;;5050057;28;20491;-67
2022/09/10 00:40:32;;;;;;;10.93;5.78;;;20.10;99.90;;;;;;5032288;28;20147;-67
2022/09/10 00:42:58;;;;;;;11.85;5.93;;;20.10;99.90;;;;;;5044428;28;20033;-68
2022/09/10 00:45:28;;;;;;;9.45;5.80;;;20.10;99.90;;;;;;5047877;28;20371;-67
2022/09/10 00:47:58;;;;;;;10.05;5.68;;;20.00;99.90;;;;;;5045169;28;20506;-67
2022/09/10 00:50:28;;;;;;;10.38;6.10;;;19.90;99.90;;;;;;5056158;28;20383;-67
2022/09/10 00:52:59;;;;;;;15.95;5.93;;;19.90;99.90;;;;;;5045018;28;20032;-68
2022/09/10 00:55:26;;;;;;;10.75;4.82;;;20.00;99.90;;;;;;5043400;28;20028;-68
2022/09/10 00:57:57;;;;;;;11.43;5.78;;;20.00;99.90;;;;;;5037772;28;20116;-69
2022/09/10 01:00:23;;;;;;;11.80;5.22;;;20.00;99.90;;;;;;5049866;28;20033;-67
2022/09/10 01:02:49;;;;;;;7.40;4.78;;;20.00;99.90;;;;;;5035872;28;20083;-67
2022/09/10 01:05:17;;;;;;;7.88;5.28;;;20.10;99.90;;;;;;5031701;28;20030;-67
2022/09/10 01:07:43;;;;;;;7.32;4.82;;;20.00;99.90;;;;;;5045948;28;20139;-67
2022/09/10 01:10:33;;;;;;;6.90;4.90;;;20.00;99.90;;;;;;5055133;28;20037;-67
2022/09/10 01:13:26;;;;;;;9.25;5.80;;;19.90;99.90;;;;;;5031753;28;20033;-68
2022/09/10 01:15:55;;;;;;;11.30;5.68;;;19.90;99.90;;;;;;5043071;28;20036;-67
2022/09/10 01:18:27;;;;;;;8.13;5.35;;;19.80;99.90;;;;;;5048824;28;20031;-67
2022/09/10 01:21:02;;;;;;;;;;;20.00;99.90;;;;;;5051706;28;20071;-68
2022/09/10 01:23:49;;;;;;;11.25;5.35;;;19.80;99.90;;;;;;5035083;28;20005;-67
2022/09/10 01:26:18;;;;;;;12.32;6.38;;;19.80;99.90;;;;;;5053394;28;20035;-67
2022/09/10 01:28:52;;;;;;;11.68;5.97;;;19.80;99.90;;;;;;5035118;28;20175;-68
2022/09/10 01:31:25;;;;;;;10.73;6.32;;;19.70;99.90;;;;;;5061828;28;20091;-68
2022/09/10 01:34:01;;;;;;;11.43;5.95;;;19.70;99.90;;;;;;5063451;28;20036;-67
2022/09/10 01:36:32;;;;;;;9.27;6.03;;;19.80;99.90;;;;;;5047690;28;20171;-68
2022/09/10 01:38:59;;;;;;;10.95;6.15;;;19.70;99.90;;;;;;5063490;28;20033;-68
2022/09/10 01:41:26;;;;;;;14.00;6.75;;;19.70;99.90;;;;;;5034615;28;20021;-67
2022/09/10 01:43:53;;;;;;;10.85;6.63;;;19.60;99.90;;;;;;5052535;28;20032;-68
2022/09/10 01:46:38;;;;;;;8.30;5.90;;;19.60;99.90;;;;;;5053107;28;20033;-68
2022/09/10 01:49:27;;;;;;;12.27;7.15;;;19.50;99.90;;;;;;5063866;28;20532;-68
2022/09/10 01:52:05;;;;;;;11.13;6.20;;;19.50;99.90;;;;;;5047286;28;20036;-68
2022/09/10 01:54:51;;;;;;;11.65;6.60;;;19.50;99.90;;;;;;5042117;28;20368;-68
2022/09/10 01:57:26;;;;;;;9.43;6.15;;;19.50;99.90;;;;;;5069378;28;20041;-68
2022/09/10 02:00:09;;;;;;;13.50;8.48;;;19.50;99.90;;;;;;5069679;28;20061;-68
2022/09/10 02:02:47;;;;;;;23.67;13.23;;;19.50;99.90;;;;;;5048637;28;20458;-68
2022/09/10 02:05:13;;;;;;;;;;;19.50;99.90;;;;;;5046617;28;20025;-68
2022/09/10 02:07:43;;;;;;;23.38;14.60;;;19.50;99.90;;;;;;5059906;28;19921;-68
2022/09/10 02:10:10;;;;;;;30.38;16.55;;;19.60;99.90;;;;;;5033479;28;20048;-67
2022/09/10 02:12:42;;;;;;;;;;;19.60;99.90;;;;;;5046060;28;20067;-67
2022/09/10 02:15:27;;;;;;;34.40;19.88;;;19.60;99.90;;;;;;5048172;28;19909;-68
2022/09/10 02:18:08;;;;;;;41.92;20.85;;;19.50;99.90;;;;;;5041776;28;20070;-68
2022/09/10 02:20:34;;;;;;;35.03;22.45;;;19.60;99.90;;;;;;5040129;28;20153;-68
2022/09/10 02:23:01;;;;;;;38.50;23.80;;;19.50;99.90;;;;;;5056630;28;20029;-68
2022/09/10 02:25:32;;;;;;;35.00;22.77;;;19.50;99.90;;;;;;5050007;28;20022;-68
2022/09/10 02:28:00;;;;;;;36.35;23.92;;;19.60;99.90;;;;;;5045247;28;20029;-67
2022/09/10 02:30:26;;;;;;;51.63;25.77;;;19.70;99.90;;;;;;5035190;28;20021;-67
2022/09/10 02:32:52;;;;;;;37.53;26.20;;;19.60;99.90;;;;;;5049472;28;20446;-68
2022/09/10 02:35:19;;;;;;;38.00;24.00;;;19.60;99.90;;;;;;5032654;28;20083;-68
2022/09/10 02:37:48;;;;;;;33.22;22.52;;;19.60;99.90;;;;;;5049384;28;20037;-68
2022/09/10 02:40:16;;;;;;;32.53;21.48;;;19.60;99.90;;;;;;5046632;28;20032;-68
2022/09/10 02:42:45;;;;;;;35.03;21.80;;;19.60;99.90;;;;;;5043490;28;20480;-67
2022/09/10 02:45:13;;;;;;;32.83;21.27;;;19.60;99.90;;;;;;5052563;28;20017;-68
2022/09/10 02:47:39;;;;;;;33.58;20.30;;;19.60;99.90;;;;;;5033850;28;20025;-68
2022/09/10 02:50:06;;;;;;;36.35;20.27;;;19.60;99.90;;;;;;5049472;28;20036;-68
2022/09/10 02:52:33;;;;;;;35.50;22.40;;;19.50;99.90;;;;;;5050498;28;20025;-68
2022/09/10 02:55:00;;;;;;;36.05;22.33;;;19.60;99.90;;;;;;5043626;28;20064;-67
2022/09/10 02:57:26;;;;;;;35.22;21.70;;;19.60;99.90;;;;;;5059354;28;20193;-67
2022/09/10 02:59:55;;;;;;;36.67;25.00;;;19.50;99.90;;;;;;5033716;28;20026;-67
2022/09/10 03:02:22;;;;;;;32.40;22.25;;;19.60;99.90;;;;;;5045928;28;20710;-68
2022/09/10 03:04:48;;;;;;;34.85;21.83;;;19.50;99.90;;;;;;5036239;28;20053;-68
2022/09/10 03:07:18;;;;;;;31.92;19.95;;;19.50;99.90;;;;;;5044902;28;20094;-68
2022/09/10 03:09:48;;;;;;;31.27;20.02;;;19.50;99.90;;;;;;5037600;28;20033;-67
2022/09/10 03:12:15;;;;;;;38.47;22.25;;;19.50;99.90;;;;;;5033702;28;20025;-68
2022/09/10 03:14:42;;;;;;;35.20;21.85;;;19.60;99.90;;;;;;5033282;28;20074;-67
2022/09/10 03:17:08;;;;;;;37.03;22.05;;;19.60;99.90;;;;;;5033432;28;20037;-68
2022/09/10 03:19:34;;;;;;;42.58;24.98;;;19.50;99.90;;;;;;5048054;28;20115;-69
2022/09/10 03:22:01;;;;;;;42.58;24.63;;;19.60;99.90;;;;;;5033075;28;20103;-68
2022/09/10 03:24:27;;;;;;;35.63;22.90;;;19.50;99.90;;;;;;5032943;28;20052;-68
2022/09/10 03:26:53;;;;;;;40.47;23.65;;;19.50;99.90;;;;;;5033264;28;20049;-68
2022/09/10 03:29:22;;;;;;;32.13;21.45;;;19.50;99.90;;;;;;5045969;28;20530;-68
2022/09/10 03:31:50;;;;;;;33.17;20.92;;;19.50;99.90;;;;;;5049986;28;20709;-68
2022/09/10 03:34:17;;;;;;;31.63;19.95;;;19.50;99.90;;;;;;5044372;28;20040;-68
2022/09/10 03:36:48;;;;;;;31.67;18.58;;;19.50;99.90;;;;;;5038662;28;20167;-68
2022/09/10 03:39:15;;;;;;;34.70;20.75;;;19.50;99.90;;;;;;5033004;28;20021;-68
2022/09/10 03:41:41;;;;;;;37.08;21.80;;;19.50;99.90;;;;;;5052554;28;20043;-68
2022/09/10 03:44:07;;;;;;;40.40;20.95;;;19.50;99.90;;;;;;5051302;28;20021;-69
2022/09/10 03:46:33;;;;;;;31.60;20.23;;;19.50;99.90;;;;;;5041547;28;20475;-68
2022/09/10 03:49:02;;;;;;;30.73;18.25;;;19.50;99.90;;;;;;5058683;28;20059;-68
2022/09/10 03:51:29;;;;;;;29.17;17.58;;;19.50;99.90;;;;;;5040537;28;20559;-68
2022/09/10 03:53:58;;;;;;;27.02;18.45;;;19.40;99.90;;;;;;5049421;28;20039;-67
2022/09/10 03:56:24;;;;;;;24.75;16.48;;;19.50;99.90;;;;;;5043928;28;20028;-68
2022/09/10 03:58:51;;;;;;;33.22;17.27;;;19.50;99.90;;;;;;5050535;28;20394;-67
2022/09/10 04:01:17;;;;;;;31.80;18.48;;;19.50;99.90;;;;;;5061621;28;20018;-67
2022/09/10 04:03:46;;;;;;;30.80;18.98;;;19.50;99.90;;;;;;5043461;28;20079;-68
2022/09/10 04:06:14;;;;;;;30.88;19.17;;;19.60;99.90;;;;;;5034054;28;20023;-68
2022/09/10 04:08:42;;;;;;;37.55;22.00;;;19.60;99.90;;;;;;5043842;28;20029;-68
2022/09/10 04:11:09;;;;;;;35.85;22.27;;;19.60;99.90;;;;;;5043859;28;20029;-68
2022/09/10 04:13:35;;;;;;;42.90;22.27;;;19.60;99.90;;;;;;5048154;28;20029;-68
2022/09/10 04:16:02;;;;;;;37.08;22.45;;;19.70;99.90;;;;;;5038933;28;20121;-68
2022/09/10 04:18:30;;;;;;;33.75;19.83;;;19.60;99.90;;;;;;5030789;28;20399;-68
2022/09/10 04:20:56;;;;;;;34.97;20.63;;;19.60;99.90;;;;;;5037127;28;20029;-68
2022/09/10 04:23:23;;;;;;;37.33;19.88;;;19.60;99.90;;;;;;5044862;28;20056;-68
2022/09/10 04:25:49;;;;;;;33.88;19.70;;;19.60;99.90;;;;;;5047280;28;20025;-68
2022/09/10 04:28:16;;;;;;;34.13;20.20;;;19.70;99.90;;;;;;5044361;28;20050;-68
2022/09/10 04:30:44;;;;;;;33.40;20.63;;;19.70;99.90;;;;;;5047230;28;20483;-68
2022/09/10 04:33:11;;;;;;;31.65;19.45;;;19.70;99.90;;;;;;5047166;28;20032;-67
2022/09/10 04:35:38;;;;;;;32.92;19.63;;;19.80;99.90;;;;;;5032123;28;20017;-67
2022/09/10 04:38:06;;;;;;;30.40;19.98;;;19.80;99.90;;;;;;5049426;28;20037;-69
2022/09/10 04:40:36;;;;;;;33.97;20.77;;;19.80;99.90;;;;;;5050734;28;20409;-68
2022/09/10 04:43:03;;;;;;;36.08;20.02;;;19.80;99.90;;;;;;5056973;28;20064;-68
2022/09/10 04:45:31;;;;;;;30.73;20.33;;;19.80;99.90;;;;;;5044556;28;20044;-67
2022/09/10 04:47:59;;;;;;;38.88;21.52;;;19.80;99.90;;;;;;5044094;28;20376;-67
2022/09/10 04:50:25;;;;;;;29.83;18.00;;;19.80;99.90;;;;;;5049811;28;20029;-67
2022/09/10 04:53:27;;;;;;;27.70;17.52;;;19.80;99.90;;;;;;5060936;28;20047;-67
2022/09/10 04:55:54;;;;;;;26.10;16.65;;;19.80;99.90;;;;;;5052539;28;20135;-67
2022/09/10 04:58:21;;;;;;;24.52;15.40;;;19.90;99.90;;;;;;5068956;28;20116;-68
2022/09/10 05:00:48;;;;;;;23.38;14.02;;;19.80;99.90;;;;;;5049372;28;20449;-68
2022/09/10 05:03:16;;;;;;;22.63;12.80;;;19.80;99.90;;;;;;5060855;28;20036;-68
2022/09/10 05:05:45;;;;;;;20.27;12.05;;;19.90;99.90;;;;;;5052435;28;20021;-68
2022/09/10 05:08:12;;;;;;;21.52;11.88;;;19.90;99.90;;;;;;5051733;28;20110;-68
2022/09/10 05:10:40;;;;;;;17.67;11.50;;;19.90;99.90;;;;;;5049435;28;20025;-66
2022/09/10 05:13:06;;;;;;;16.30;9.98;;;19.80;99.90;;;;;;5042556;28;20061;-68
2022/09/10 05:15:34;;;;;;;20.17;9.27;;;19.80;99.90;;;;;;5032645;28;20033;-68
2022/09/10 05:18:01;;;;;;;15.88;9.48;;;19.80;99.90;;;;;;5044544;28;20028;-68
2022/09/10 05:20:28;;;;;;;14.18;8.20;;;19.70;99.90;;;;;;5052119;28;20037;-68
2022/09/10 05:22:55;;;;;;;11.18;7.38;;;19.70;99.90;;;;;;5052346;28;20056;-68
2022/09/10 05:25:22;;;;;;;12.70;6.82;;;19.70;99.90;;;;;;5052217;28;20502;-69
2022/09/10 05:27:48;;;;;;;11.88;6.53;;;19.70;99.90;;;;;;5046590;28;20026;-69
2022/09/10 05:30:18;;;;;;;9.23;5.47;;;19.70;99.90;;;;;;5046505;28;20025;-68
2022/09/10 05:32:46;;;;;;;9.93;4.78;;;19.70;99.90;;;;;;5046501;28;20021;-68
2022/09/10 05:35:13;;;;;;;6.65;4.25;;;19.60;99.90;;;;;;5043617;28;20068;-68
2022/09/10 05:37:41;;;;;;;7.05;4.45;;;19.60;99.90;;;;;;5049602;28;20087;-68
2022/09/10 05:40:12;;;;;;;5.60;3.88;;;19.70;99.90;;;;;;5054582;28;20358;-67
2022/09/10 05:42:38;;;;;;;5.65;3.80;;;19.70;99.90;;;;;;5050489;28;20551;-68
2022/09/10 05:45:04;;;;;;;8.23;4.65;;;19.70;99.90;;;;;;5051656;28;20101;-68
2022/09/10 05:47:33;;;;;;;8.45;4.95;;;19.70;99.90;;;;;;5049726;28;20025;-69
2022/09/10 05:50:00;;;;;;;10.98;4.35;;;19.80;99.90;;;;;;5031911;28;20032;-68
2022/09/10 05:52:26;;;;;;;7.22;2.50;;;19.80;99.90;;;;;;5047437;28;20033;-68
2022/09/10 05:54:57;;;;;;;5.35;1.90;;;19.70;99.90;;;;;;5038454;28;20029;-67
2022/09/10 05:57:23;;;;;;;3.17;1.60;;;19.60;99.90;;;;;;5049491;28;20037;-67
2022/09/10 05:59:49;;;;;;;6.03;2.58;;;19.60;99.90;;;;;;5048037;28;20021;-67
2022/09/10 06:02:18;;;;;;;3.28;2.33;;;19.50;99.90;;;;;;5064272;28;20471;-66
2022/09/10 06:04:44;;;;;;;9.02;2.80;;;19.60;99.90;;;;;;5052135;28;20020;-68
2022/09/10 06:07:10;;;;;;;3.38;2.13;;;19.70;99.90;;;;;;5069261;28;20049;-68
2022/09/10 06:09:36;;;;;;;3.90;1.90;;;19.70;99.90;;;;;;5069432;28;20048;-68
2022/09/10 06:12:15;;;;;;;7.20;2.20;;;19.80;99.90;;;;;;5062009;28;20037;-68
2022/09/10 06:14:40;;;;;;;3.15;2.33;;;19.80;99.90;;;;;;5052695;28;20108;-67
2022/09/10 06:17:07;;;;;;;4.70;1.92;;;19.90;99.90;;;;;;5051394;28;20032;-66
2022/09/10 06:19:33;;;;;;;3.45;2.20;;;20.00;99.90;;;;;;5037822;28;20079;-68
2022/09/10 06:21:59;;;;;;;3.22;2.08;;;20.20;99.90;;;;;;5033593;28;20017;-68
2022/09/10 06:24:26;;;;;;;4.13;2.33;;;20.30;99.90;;;;;;5045719;28;20036;-69
2022/09/10 06:26:56;;;;;;;4.30;2.47;;;20.20;99.90;;;;;;5047813;28;20468;-68
2022/09/10 06:29:24;;;;;;;6.10;2.42;;;20.40;99.90;;;;;;5065168;28;20028;-67
2022/09/10 06:31:50;;;;;;;4.90;2.30;;;20.10;99.90;;;;;;5067945;28;20071;-67
2022/09/10 06:34:17;;;;;;;4.03;2.03;;;19.90;99.90;;;;;;5052234;28;20039;-67
2022/09/10 06:36:45;;;;;;;2.58;1.92;;;20.00;99.90;;;;;;5051780;28;20087;-67
2022/09/10 06:39:11;;;;;;;5.07;2.20;;;19.90;99.90;;;;;;5053325;28;20128;-67
2022/09/10 06:41:47;;;;;;;2.58;2.15;;;19.90;99.90;;;;;;5058595;28;20488;-66
2022/09/10 06:44:29;;;;;;;3.50;2.17;;;20.00;99.90;;;;;;5048383;28;20476;-66
2022/09/10 06:47:13;;;;;;;3.78;2.10;;;20.10;99.90;;;;;;5052612;28;20090;-67
2022/09/10 06:49:39;;;;;;;5.25;1.85;;;20.10;99.90;;;;;;5046526;28;20430;-66
2022/09/10 06:52:05;;;;;;;3.65;2.30;;;20.30;99.90;;;;;;5050416;28;20021;-67
2022/09/10 06:54:32;;;;;;;2.35;1.88;;;20.70;99.90;;;;;;5052078;28;20387;-68
2022/09/10 06:57:09;;;;;;;3.20;1.83;;;21.20;99.90;;;;;;5050489;28;20033;-68
2022/09/10 06:59:35;;;;;;;5.80;1.50;;;21.50;99.90;;;;;;5048626;28;20025;-67
2022/09/10 07:02:01;;;;;;;4.95;1.75;;;21.60;99.90;;;;;;5041419;28;20031;-67
2022/09/10 07:04:27;;;;;;;2.05;1.30;;;21.70;99.90;;;;;;5048244;28;20021;-66
2022/09/10 07:06:58;;;;;;;2.42;1.48;;;21.40;99.90;;;;;;5038998;28;20593;-67
2022/09/10 07:09:24;;;;;;;2.63;1.35;;;21.40;99.90;;;;;;5062130;28;20026;-67
2022/09/10 07:11:58;;;;;;;1.73;1.40;;;21.20;99.90;;;;;;5049280;28;20017;-67
2022/09/10 07:14:25;;;;;;;3.08;1.75;;;21.30;99.90;;;;;;5062988;28;20021;-66
2022/09/10 07:16:54;;;;;;;3.08;2.28;;;21.40;99.90;;;;;;5050710;28;20028;-67
2022/09/10 07:19:22;;;;;;;2.72;1.67;;;21.50;99.90;;;;;;5047877;28;20029;-67
2022/09/10 07:21:49;;;;;;;2.75;1.95;;;21.70;99.90;;;;;;5049891;28;20021;-68
2022/09/10 07:24:15;;;;;;;3.58;1.92;;;21.70;99.90;;;;;;5047712;28;20109;-67
2022/09/10 07:26:55;;;;;;;3.92;1.85;;;21.50;99.90;;;;;;5048178;28;20036;-67
2022/09/10 07:29:22;;;;;;;2.60;1.75;;;21.60;99.90;;;;;;5049517;28;20025;-67
2022/09/10 07:31:48;;;;;;;2.95;2.00;;;21.60;99.90;;;;;;5041973;28;20017;-67
2022/09/10 07:34:22;;;;;;;4.35;2.55;;;21.50;99.90;;;;;;5047525;28;20040;-68
2022/09/10 07:36:48;;;;;;;3.20;1.98;;;21.40;99.90;;;;;;5034027;28;20047;-68
2022/09/10 07:39:14;;;;;;;4.95;2.03;;;21.30;99.90;;;;;;5034516;28;20027;-68
2022/09/10 07:41:41;;;;;;;8.80;3.70;;;21.30;99.90;;;;;;5051327;28;20376;-67
2022/09/10 07:44:11;;;;;;;5.72;2.85;;;21.30;99.90;;;;;;5050334;28;20060;-67
2022/09/10 07:46:41;;;;;;;8.48;3.08;;;21.30;99.90;;;;;;5068168;28;20028;-67
2022/09/10 07:49:09;;;;;;;6.22;2.60;;;21.20;99.90;;;;;;5048886;28;20025;-67
2022/09/10 07:51:38;;;;;;;6.28;2.63;;;21.20;99.90;;;;;;5051237;28;20029;-67
2022/09/10 07:54:05;;;;;;;8.85;2.63;;;21.20;99.90;;;;;;5041764;28;20029;-67
2022/09/10 07:56:36;;;;;;;8.98;4.68;;;21.20;99.90;;;;;;5047004;28;20031;-68
2022/09/10 07:59:05;;;;;;;6.20;2.75;;;21.20;99.90;;;;;;5036514;28;20611;-68
2022/09/10 08:01:38;;;;;;;6.30;2.90;;;21.20;99.90;;;;;;5040883;28;20043;-68
2022/09/10 08:04:06;;;;;;;6.93;2.90;;;21.30;99.90;;;;;;5045507;28;20036;-67
2022/09/10 08:06:34;;;;;;;5.47;2.85;;;21.50;99.90;;;;;;5051353;28;20110;-68
2022/09/10 08:09:05;;;;;;;6.88;3.45;;;21.70;99.90;;;;;;5047527;28;20044;-68
2022/09/10 08:11:33;;;;;;;5.28;2.75;;;22.10;99.90;;;;;;5048110;28;20391;-67
2022/09/10 08:14:00;;;;;;;4.53;2.33;;;22.00;99.90;;;;;;5047591;28;20387;-67
2022/09/10 08:16:27;;;;;;;3.38;2.47;;;21.80;99.90;;;;;;5044266;28;20029;-68
2022/09/10 08:18:59;;;;;;;4.20;2.70;;;21.70;99.90;;;;;;5047440;28;20029;-67
2022/09/10 08:21:28;;;;;;;5.47;3.17;;;21.50;99.90;;;;;;5045280;28;20408;-68
2022/09/10 08:23:56;;;;;;;5.80;3.08;;;21.90;99.90;;;;;;5037697;28;20033;-68
2022/09/10 08:26:25;;;;;;;9.40;3.35;;;22.10;99.90;;;;;;5037731;28;20022;-68
2022/09/10 08:28:54;;;;;;;7.78;3.20;;;22.30;99.90;;;;;;5049561;28;20387;-68
2022/09/10 08:31:23;;;;;;;5.47;2.40;;;22.50;99.90;;;;;;5066647;28;20086;-66
2022/09/10 08:33:56;;;;;;;4.00;2.10;;;22.80;99.90;;;;;;5067489;28;20120;-67
2022/09/10 08:36:24;;;;;;;8.05;2.22;;;22.60;99.90;;;;;;5048175;28;20037;-67
2022/09/10 08:38:51;;;;;;;4.32;2.28;;;22.40;99.90;;;;;;5047448;28;20411;-67
2022/09/10 08:41:20;;;;;;;5.13;2.05;;;22.00;99.90;;;;;;5051003;28;20029;-66
2022/09/10 08:44:04;;;;;;;2.97;2.33;;;22.10;99.90;;;;;;5061932;28;20056;-66
2022/09/10 08:46:39;;;;;;;5.20;2.40;;;22.30;99.90;;;;;;5050054;28;20034;-66
2022/09/10 08:49:27;;;;;;;7.82;1.60;;;22.40;99.90;;;;;;5063674;28;20080;-66
2022/09/10 08:52:09;;;;;;;4.25;1.60;;;22.50;99.90;;;;;;5066692;28;20047;-65
2022/09/10 08:54:40;;;;;;;2.67;1.42;;;22.30;99.90;;;;;;5066449;28;20359;-67
2022/09/10 08:57:35;;;;;;;4.15;2.20;;;22.20;99.90;;;;;;5050253;28;20056;-66
2022/09/10 09:00:03;;;;;;;7.80;2.25;;;22.10;99.90;;;;;;5066856;28;20029;-66
2022/09/10 09:03:08;;;;;;;3.58;2.13;;;22.00;99.90;;;;;;5066898;28;20352;-67
2022/09/10 09:05:47;;;;;;;2.63;1.80;;;22.00;99.90;;;;;;5034979;28;20036;-66
2022/09/10 09:08:21;;;;;;;5.05;2.03;;;22.00;99.90;;;;;;5066714;28;20094;-66
2022/09/10 09:11:02;;;;;;;3.47;2.40;;;21.80;99.90;;;;;;5055699;28;20035;-66
2022/09/10 09:13:32;;;;;;;2.60;1.92;;;22.30;99.90;;;;;;5047028;28;20383;-66
2022/09/10 09:16:11;;;;;;;3.38;1.73;;;22.80;99.90;;;;;;5048317;28;20505;-67
2022/09/10 09:18:49;;;;;;;4.82;1.98;;;22.90;99.90;;;;;;5066726;28;20033;-65
2022/09/10 09:21:17;;;;;;;4.35;2.65;;;22.40;99.90;;;;;;5051692;28;20383;-66
2022/09/10 09:23:43;;;;;;;3.25;1.85;;;22.40;99.90;;;;;;5048087;28;20017;-68
2022/09/10 09:26:12;;;;;;;4.47;2.08;;;22.60;99.90;;;;;;5050865;28;20031;-66
2022/09/10 09:28:50;;;;;;;8.23;3.13;;;22.80;99.90;;;;;;5047352;28;20022;-67
2022/09/10 09:31:24;;;;;;;8.45;1.80;;;23.00;99.90;;;;;;5044594;28;20025;-66
2022/09/10 09:33:57;;;;;;;7.88;1.70;;;23.10;99.90;;;;;;5037914;28;20033;-67
2022/09/10 09:36:30;;;;;;;2.85;1.50;;;23.10;99.90;;;;;;5052846;28;20038;-66
2022/09/10 09:38:56;;;;;;;3.13;1.52;;;23.20;99.90;;;;;;5038321;28;20430;-66
2022/09/10 09:41:24;;;;;;;5.47;2.25;;;23.30;99.90;;;;;;5054707;28;20025;-67
2022/09/10 09:44:30;;;;;;;2.05;1.42;;;23.50;99.90;;;;;;5070946;28;20044;-66
2022/09/10 09:46:56;;;;;;;4.80;1.40;;;23.50;99.90;;;;;;5032085;28;20041;-66
2022/09/10 09:49:23;;;;;;;4.97;2.00;;;23.10;99.90;;;;;;5032677;28;20095;-66
2022/09/10 09:51:50;;;;;;;16.50;4.15;;;23.10;99.90;;;;;;5032976;28;20041;-67
2022/09/10 09:54:28;;;;;;;8.52;2.08;;;23.40;99.90;;;;;;5032894;28;20450;-67
2022/09/10 09:57:00;;;;;;;32.65;4.65;;;23.40;99.90;;;;;;5030589;28;20458;-67
2022/09/10 09:59:30;;;;;;;10.30;3.17;;;23.60;99.90;;;;;;5031783;28;20164;-66
2022/09/10 10:02:08;;;;;;;7.50;2.03;;;23.90;99.90;;;;;;5033167;28;20559;-66
2022/09/10 10:04:35;;;;;;;36.47;5.45;;;23.90;99.90;;;;;;5032779;28;20040;-67
2022/09/10 10:07:03;;;;;;;16.58;2.83;;;23.70;99.90;;;;;;5032286;28;20045;-67
2022/09/10 10:09:32;;;;;;;40.30;6.63;;;23.60;99.90;;;;;;5032969;28;20175;-67
2022/09/10 10:12:05;;;;;;;60.10;11.00;;;23.70;99.90;;;;;;5019265;28;20036;-67
2022/09/10 10:14:31;;;;;;;24.75;5.28;;;23.80;99.90;;;;;;5032742;28;20112;-68
2022/09/10 10:16:59;;;;;;;52.10;12.63;;;23.80;99.90;;;;;;5031492;28;20116;-68
2022/09/10 10:19:33;;;;;;;53.17;12.48;;;23.60;99.90;;;;;;5032199;28;20041;-68
2022/09/10 10:22:15;;;;;;;16.75;5.15;;;23.20;99.90;;;;;;5030770;28;20100;-67
2022/09/10 10:24:42;;;;;;;10.52;4.63;;;23.60;99.90;;;;;;5040958;28;20033;-68
2022/09/10 10:27:29;;;;;;;12.45;3.88;;;23.60;99.90;;;;;;5033991;28;20028;-65
2022/09/10 10:29:59;;;;;;;8.35;4.47;;;23.40;99.90;;;;;;5035095;28;20375;-68
2022/09/10 10:32:50;;;;;;;5.28;2.80;;;23.70;99.90;;;;;;5034786;28;20483;-68
2022/09/10 10:35:34;;;;;;;3.53;2.00;;;23.80;99.90;;;;;;5034350;28;20136;-68
2022/09/10 10:38:24;;;;;;;3.88;1.73;;;23.10;99.90;;;;;;5034247;28;20038;-68
2022/09/10 10:41:28;;;;;;;41.30;6.85;;;23.50;99.90;;;;;;5034617;28;20022;-68
2022/09/10 10:44:31;;;;;;;27.45;4.45;;;23.30;99.90;;;;;;5034139;28;20024;-68
2022/09/10 10:47:17;;;;;;;6.88;2.30;;;23.10;99.90;;;;;;5026582;28;20033;-66
2022/09/10 10:50:20;;;;;;;5.75;2.50;;;23.30;99.90;;;;;;5031622;28;20549;-67
2022/09/10 10:53:20;;;;;;;3.00;1.75;;;23.20;99.90;;;;;;5018272;28;20037;-67
2022/09/10 10:56:05;;;;;;;4.30;2.28;;;23.20;99.90;;;;;;5031860;28;20064;-68
2022/09/10 10:58:57;;;;;;;4.43;2.03;;;23.50;99.90;;;;;;5031957;28;20456;-68
2022/09/10 11:01:28;;;;;;;52.28;9.52;;;23.60;99.90;;;;;;5032351;28;20029;-67
2022/09/10 11:04:28;;;;;;;24.83;6.25;;;24.00;99.90;;;;;;5032044;28;20075;-68
2022/09/10 11:07:23;;;;;;;41.33;10.23;;;23.90;99.90;;;;;;5022592;28;20059;-67
2022/09/10 11:09:55;;;;;;;87.15;15.95;;;23.90;99.90;;;;;;5031421;28;20037;-67
2022/09/10 11:12:54;;;;;;;130.23;22.77;;;24.20;99.90;;;;;;5031791;28;20147;-67
2022/09/10 11:15:42;;;;;;;71.72;14.75;;;24.20;99.90;;;;;;5027678;28;20175;-66
2022/09/10 11:18:35;;;;;;;73.40;11.18;;;23.80;99.90;;;;;;5031609;28;20029;-67
2022/09/10 11:21:37;;;;;;;16.15;5.05;;;23.50;99.90;;;;;;5029516;28;20055;-67
2022/09/10 11:24:10;;;;;;;28.45;4.82;;;23.30;99.90;;;;;;5041322;28;20512;-67
2022/09/10 11:26:57;;;;;;;16.45;4.25;;;23.60;99.90;;;;;;5034043;28;20480;-67
2022/09/10 11:29:48;;;;;;;5.53;2.50;;;23.80;99.90;;;;;;5035272;28;20085;-67
2022/09/10 11:33:03;;;;;;;1.63;1.33;;;24.10;99.90;;;;;;5045827;28;20471;-67
2022/09/10 11:36:14;;;;;;;4.38;1.83;;;24.10;99.90;;;;;;5011959;28;20046;-66
2022/09/10 11:38:43;;;;;;;2.40;1.52;;;24.30;99.90;;;;;;4940805;28;20102;-66
2022/09/10 11:41:14;;;;;;;5.90;1.50;;;24.30;99.90;;;;;;4947079;28;20064;-66
2022/09/10 11:44:11;;;;;;;3.35;1.52;;;24.10;99.90;;;;;;4951109;29;20118;-66
2022/09/10 11:46:43;;;;;;;2.67;1.30;;;24.20;99.90;;;;;;4949236;29;20478;-67
2022/09/10 11:49:12;;;;;;;;;;;24.20;99.90;;;;;;4945239;29;20593;-65
2022/09/10 11:51:40;;;;;;;3.10;1.52;;;24.20;99.90;;;;;;4947444;28;20019;-65
2022/09/10 11:54:37;;;;;;;3.72;1.92;;;23.50;99.90;;;;;;4952475;28;20120;-66
2022/09/10 11:57:17;;;;;;;1.77;1.35;;;24.60;99.90;;;;;;4947366;28;20139;-66
2022/09/10 11:59:45;;;;;;;1.38;1.27;;;24.70;99.90;;;;;;4933496;28;20355;-67
2022/09/10 12:02:19;;;;;;;2.17;1.65;;;24.90;99.90;;;;;;4932851;28;20067;-67
2022/09/10 12:05:03;;;;;;;2.50;1.70;;;24.90;99.90;;;;;;4933147;28;20039;-66
2022/09/10 12:07:43;;;;;;;4.03;1.20;;;23.60;99.90;;;;;;4943924;28;20191;-66
2022/09/10 12:10:30;;;;;;;3.13;1.40;;;25.00;99.90;;;;;;4942810;28;20190;-67
2022/09/10 12:12:56;;;;;;;4.75;2.13;;;24.90;99.90;;;;;;4974233;28;20038;-67
2022/09/10 12:15:33;;;;;;;2.10;1.15;;;25.00;99.90;;;;;;5032582;28;20021;-66
2022/09/10 12:18:03;;;;;;;2.50;1.50;;;25.10;99.90;;;;;;5033093;28;20403;-65
2022/09/10 12:20:43;;;;;;;4.60;1.60;;;25.30;99.90;;;;;;5032416;28;20025;-65
2022/09/10 12:23:36;;;;;;;2.30;1.45;;;25.40;99.90;;;;;;5046041;28;20044;-67
2022/09/10 12:26:10;;;;;;;1.65;1.23;;;25.10;99.90;;;;;;5042535;28;20091;-66
2022/09/10 12:28:42;;;;;;;2.67;1.08;;;24.80;99.90;;;;;;5032402;28;20021;-66
2022/09/10 12:31:10;;;;;;;4.18;1.70;;;24.90;99.90;;;;;;5032435;28;20029;-66
2022/09/10 12:33:44;;;;;;;3.08;1.75;;;24.80;99.90;;;;;;5031817;28;20028;-66
2022/09/10 12:36:25;;;;;;;3.78;1.42;;;24.80;99.90;;;;;;5031891;28;20037;-66
2022/09/10 12:39:15;;;;;;;2.05;1.25;;;24.70;99.90;;;;;;5032090;28;20049;-65
2022/09/10 12:41:41;;;;;;;2.50;1.30;;;24.60;99.90;;;;;;5032376;28;20056;-66
2022/09/10 12:44:33;;;;;;;1.67;1.27;;;24.60;99.90;;;;;;5043770;28;20059;-65
2022/09/10 12:47:17;;;;;;;3.20;1.08;;;24.60;99.90;;;;;;5032408;28;20384;-65
2022/09/10 12:49:53;;;;;;;1.45;1.00;;;24.60;99.90;;;;;;5032381;28;20476;-65
2022/09/10 12:52:30;;;;;;;2.97;1.40;;;24.80;99.90;;;;;;5032256;28;20021;-66
2022/09/10 12:55:27;;;;;;;11.55;3.30;;;24.80;99.60;;;;;;5032203;28;20128;-66
2022/09/10 12:57:57;;;;;;;1.80;1.50;;;25.00;99.50;;;;;;5049713;28;20045;-66
2022/09/10 13:00:26;;;;;;;1.38;1.27;;;25.00;99.90;;;;;;5052066;28;20029;-66
2022/09/10 13:03:08;;;;;;;8.90;2.80;;;25.10;99.90;;;;;;5050960;28;20471;-66
2022/09/10 13:05:42;;;;;;;4.80;2.13;;;25.20;99.90;;;;;;5048732;28;20028;-65
2022/09/10 13:08:14;;;;;;;2.75;1.45;;;25.20;99.90;;;;;;5046342;28;20037;-66